sensor_id;sensor_type;location;lat;lon;timestamp;temperature;humidity
21722;DHT22;11023;48.274;7.794;2024-03-25T00:01:08;4.80;99.90
21722;DHT22;11023;48.274;7.794;2024-03-25T00:03:33;4.80;99.90
21722;DHT22;11023;48.274;7.794;2024-03-25T00:05:59;4.70;99.90
21722;DHT22;11023;48.274;7.794;2024-03-25T00:08:29;4.80;99.90
21722;DHT22;11023;48.274;7.794;2024-03-25T00:10:57;4.90;99.90
21722;DHT22;11023;48.274;7.794;2024-03-25T00:13:22;4.80;99.90
21722;DHT22;11023;48.274;7.794;2024-03-25T00:15:49;4.80;99.90
21722;DHT22;11023;48.274;7.794;2024-03-25T00:18:18;4.80;99.90
21722;DHT22;11023;48.274;7.794;2024-03-25T00:20:49;4.80;99.90
21722;DHT22;11023;48.274;7.794;2024-03-25T00:23:20;4.90;99.90
21722;DHT22;11023;48.274;7.794;2024-03-25T00:25:46;4.90;99.90
21722;DHT22;11023;48.274;7.794;2024-03-25T00:28:15;4.90;99.90
21722;DHT22;11023;48.274;7.794;2024-03-25T00:30:41;4.90;99.90
21722;DHT22;11023;48.274;7.794;2024-03-25T00:33:10;4.90;99.90
21722;DHT22;11023;48.274;7.794;2024-03-25T00:35:37;4.90;99.90
21722;DHT22;11023;48.274;7.794;2024-03-25T00:38:03;4.90;99.90
21722;DHT22;11023;48.274;7.794;2024-03-25T00:40:39;4.90;99.90
21722;DHT22;11023;48.274;7.794;2024-03-25T00:43:08;4.90;99.90
21722;DHT22;11023;48.274;7.794;2024-03-25T00:45:36;4.90;99.90
21722;DHT22;11023;48.274;7.794;2024-03-25T00:48:14;4.90;99.90
21722;DHT22;11023;48.274;7.794;2024-03-25T00:50:40;4.90;99.90
21722;DHT22;11023;48.274;7.794;2024-03-25T00:53:11;4.90;99.90
21722;DHT22;11023;48.274;7.794;2024-03-25T00:55:40;4.90;99.90
21722;DHT22;11023;48.274;7.794;2024-03-25T00:58:06;4.90;99.90
21722;DHT22;11023;48.274;7.794;2024-03-25T01:00:32;4.90;99.90
21722;DHT22;11023;48.274;7.794;2024-03-25T01:02:58;4.80;99.90
21722;DHT22;11023;48.274;7.794;2024-03-25T01:05:32;4.80;99.90
21722;DHT22;11023;48.274;7.794;2024-03-25T01:07:58;4.80;99.90
21722;DHT22;11023;48.274;7.794;2024-03-25T01:10:24;4.70;99.90
21722;DHT22;11023;48.274;7.794;2024-03-25T01:12:51;4.80;99.90
21722;DHT22;11023;48.274;7.794;2024-03-25T01:15:17;4.70;99.90
21722;DHT22;11023;48.274;7.794;2024-03-25T01:17:43;4.70;99.90
21722;DHT22;11023;48.274;7.794;2024-03-25T01:20:09;4.70;99.90
21722;DHT22;11023;48.274;7.794;2024-03-25T01:22:39;4.60;99.90
21722;DHT22;11023;48.274;7.794;2024-03-25T01:25:07;4.60;99.90
21722;DHT22;11023;48.274;7.794;2024-03-25T01:27:33;4.60;99.90
21722;DHT22;11023;48.274;7.794;2024-03-25T01:29:59;4.50;99.90
21722;DHT22;11023;48.274;7.794;2024-03-25T01:32:26;4.60;99.90
21722;DHT22;11023;48.274;7.794;2024-03-25T01:35:03;4.60;99.90
21722;DHT22;11023;48.274;7.794;2024-03-25T01:37:29;4.70;99.90
21722;DHT22;11023;48.274;7.794;2024-03-25T01:39:58;4.60;99.90
21722;DHT22;11023;48.274;7.794;2024-03-25T01:42:24;4.60;99.90
21722;DHT22;11023;48.274;7.794;2024-03-25T01:44:51;4.60;99.90
21722;DHT22;11023;48.274;7.794;2024-03-25T01:47:16;4.60;99.90
21722;DHT22;11023;48.274;7.794;2024-03-25T01:49:42;4.50;99.90
21722;DHT22;11023;48.274;7.794;2024-03-25T01:52:09;4.50;99.90
21722;DHT22;11023;48.274;7.794;2024-03-25T01:54:35;4.50;99.90
21722;DHT22;11023;48.274;7.794;2024-03-25T01:57:03;4.40;99.90
21722;DHT22;11023;48.274;7.794;2024-03-25T01:59:29;4.40;99.90
21722;DHT22;11023;48.274;7.794;2024-03-25T02:01:55;4.40;99.90
21722;DHT22;11023;48.274;7.794;2024-03-25T02:04:23;4.40;99.90
21722;DHT22;11023;48.274;7.794;2024-03-25T02:06:49;4.30;99.90
21722;DHT22;11023;48.274;7.794;2024-03-25T02:09:17;4.30;99.90
21722;DHT22;11023;48.274;7.794;2024-03-25T02:11:43;4.30;99.90
21722;DHT22;11023;48.274;7.794;2024-03-25T02:14:09;4.30;99.90
21722;DHT22;11023;48.274;7.794;2024-03-25T02:16:35;4.30;99.90
21722;DHT22;11023;48.274;7.794;2024-03-25T02:19:00;4.30;99.90
21722;DHT22;11023;48.274;7.794;2024-03-25T02:21:26;4.30;99.90
21722;DHT22;11023;48.274;7.794;2024-03-25T02:23:53;4.30;99.90
21722;DHT22;11023;48.274;7.794;2024-03-25T02:26:21;4.30;99.90
21722;DHT22;11023;48.274;7.794;2024-03-25T02:28:48;4.30;99.90
21722;DHT22;11023;48.274;7.794;2024-03-25T02:31:14;4.20;99.90
21722;DHT22;11023;48.274;7.794;2024-03-25T02:33:40;4.20;99.90
21722;DHT22;11023;48.274;7.794;2024-03-25T02:36:07;4.30;99.90
21722;DHT22;11023;48.274;7.794;2024-03-25T02:38:33;4.20;99.90
21722;DHT22;11023;48.274;7.794;2024-03-25T02:40:59;4.20;99.90
21722;DHT22;11023;48.274;7.794;2024-03-25T02:43:25;4.10;99.90
21722;DHT22;11023;48.274;7.794;2024-03-25T02:45:51;4.10;99.90
21722;DHT22;11023;48.274;7.794;2024-03-25T02:48:17;4.00;99.90
21722;DHT22;11023;48.274;7.794;2024-03-25T02:50:42;4.00;99.90
21722;DHT22;11023;48.274;7.794;2024-03-25T02:53:08;3.90;99.90
21722;DHT22;11023;48.274;7.794;2024-03-25T02:55:33;3.90;99.90
21722;DHT22;11023;48.274;7.794;2024-03-25T02:57:59;3.80;99.90
21722;DHT22;11023;48.274;7.794;2024-03-25T03:00:25;3.80;99.90
21722;DHT22;11023;48.274;7.794;2024-03-25T03:02:50;3.80;99.90
21722;DHT22;11023;48.274;7.794;2024-03-25T03:05:16;3.80;99.90
21722;DHT22;11023;48.274;7.794;2024-03-25T03:07:42;3.80;99.90
21722;DHT22;11023;48.274;7.794;2024-03-25T03:10:07;3.80;99.90
21722;DHT22;11023;48.274;7.794;2024-03-25T03:12:33;3.80;99.90
21722;DHT22;11023;48.274;7.794;2024-03-25T03:14:59;3.80;99.90
21722;DHT22;11023;48.274;7.794;2024-03-25T03:17:24;3.80;99.90
21722;DHT22;11023;48.274;7.794;2024-03-25T03:19:50;3.90;99.90
21722;DHT22;11023;48.274;7.794;2024-03-25T03:22:15;3.90;99.90
21722;DHT22;11023;48.274;7.794;2024-03-25T03:24:41;3.90;99.90
21722;DHT22;11023;48.274;7.794;2024-03-25T03:27:07;4.00;99.90
21722;DHT22;11023;48.274;7.794;2024-03-25T03:29:32;4.00;99.90
21722;DHT22;11023;48.274;7.794;2024-03-25T03:31:58;4.00;99.90
21722;DHT22;11023;48.274;7.794;2024-03-25T03:34:24;4.00;99.90
21722;DHT22;11023;48.274;7.794;2024-03-25T03:36:50;4.00;99.90
21722;DHT22;11023;48.274;7.794;2024-03-25T03:39:15;4.00;99.90
21722;DHT22;11023;48.274;7.794;2024-03-25T03:41:41;4.00;99.90
21722;DHT22;11023;48.274;7.794;2024-03-25T03:44:07;4.00;99.90
21722;DHT22;11023;48.274;7.794;2024-03-25T03:46:32;4.10;99.90
21722;DHT22;11023;48.274;7.794;2024-03-25T03:48:59;4.10;99.90
21722;DHT22;11023;48.274;7.794;2024-03-25T03:51:24;4.10;99.90
21722;DHT22;11023;48.274;7.794;2024-03-25T03:53:50;4.00;99.90
21722;DHT22;11023;48.274;7.794;2024-03-25T03:56:16;4.10;99.90
21722;DHT22;11023;48.274;7.794;2024-03-25T03:58:41;4.00;99.90
21722;DHT22;11023;48.274;7.794;2024-03-25T04:01:15;3.90;99.90
21722;DHT22;11023;48.274;7.794;2024-03-25T04:03:41;3.80;99.90
21722;DHT22;11023;48.274;7.794;2024-03-25T04:06:11;3.70;99.90
21722;DHT22;11023;48.274;7.794;2024-03-25T04:08:40;3.70;99.90
21722;DHT22;11023;48.274;7.794;2024-03-25T04:11:07;3.60;99.90
21722;DHT22;11023;48.274;7.794;2024-03-25T04:13:35;3.60;99.90
21722;DHT22;11023;48.274;7.794;2024-03-25T04:16:05;3.60;99.90
21722;DHT22;11023;48.274;7.794;2024-03-25T04:18:32;3.50;99.90
21722;DHT22;11023;48.274;7.794;2024-03-25T04:20:59;3.50;99.90
21722;DHT22;11023;48.274;7.794;2024-03-25T04:23:25;3.50;99.90
21722;DHT22;11023;48.274;7.794;2024-03-25T04:25:51;3.50;99.90
21722;DHT22;11023;48.274;7.794;2024-03-25T04:28:18;3.50;99.90
21722;DHT22;11023;48.274;7.794;2024-03-25T04:30:50;3.50;99.90
21722;DHT22;11023;48.274;7.794;2024-03-25T04:33:16;3.50;99.90
21722;DHT22;11023;48.274;7.794;2024-03-25T04:35:42;3.50;99.90
21722;DHT22;11023;48.274;7.794;2024-03-25T04:38:08;3.50;99.90
21722;DHT22;11023;48.274;7.794;2024-03-25T04:40:35;3.50;99.90
21722;DHT22;11023;48.274;7.794;2024-03-25T04:43:01;3.60;99.90
21722;DHT22;11023;48.274;7.794;2024-03-25T04:45:28;3.60;99.90
21722;DHT22;11023;48.274;7.794;2024-03-25T04:47:53;3.60;99.90
21722;DHT22;11023;48.274;7.794;2024-03-25T04:50:19;3.60;99.90
21722;DHT22;11023;48.274;7.794;2024-03-25T04:52:44;3.60;99.90
21722;DHT22;11023;48.274;7.794;2024-03-25T04:55:10;3.60;99.90
21722;DHT22;11023;48.274;7.794;2024-03-25T04:57:36;3.60;99.90
21722;DHT22;11023;48.274;7.794;2024-03-25T05:00:02;3.50;99.90
21722;DHT22;11023;48.274;7.794;2024-03-25T05:02:28;3.40;99.90
21722;DHT22;11023;48.274;7.794;2024-03-25T05:04:53;3.40;99.90
21722;DHT22;11023;48.274;7.794;2024-03-25T05:07:19;3.40;99.90
21722;DHT22;11023;48.274;7.794;2024-03-25T05:09:45;3.30;99.90
21722;DHT22;11023;48.274;7.794;2024-03-25T05:12:11;3.30;99.90
21722;DHT22;11023;48.274;7.794;2024-03-25T05:14:36;3.30;99.90
21722;DHT22;11023;48.274;7.794;2024-03-25T05:17:04;3.30;99.90
21722;DHT22;11023;48.274;7.794;2024-03-25T05:19:33;3.30;99.90
21722;DHT22;11023;48.274;7.794;2024-03-25T05:21:59;3.30;99.90
21722;DHT22;11023;48.274;7.794;2024-03-25T05:24:25;3.30;99.90
21722;DHT22;11023;48.274;7.794;2024-03-25T05:26:53;3.30;99.90
21722;DHT22;11023;48.274;7.794;2024-03-25T05:29:19;3.20;99.90
21722;DHT22;11023;48.274;7.794;2024-03-25T05:32:11;3.30;99.90
21722;DHT22;11023;48.274;7.794;2024-03-25T05:34:37;3.20;99.90
21722;DHT22;11023;48.274;7.794;2024-03-25T05:37:03;3.20;99.90
21722;DHT22;11023;48.274;7.794;2024-03-25T05:39:29;3.20;99.90
21722;DHT22;11023;48.274;7.794;2024-03-25T05:41:54;3.10;99.90
21722;DHT22;11023;48.274;7.794;2024-03-25T05:44:20;3.10;99.90
21722;DHT22;11023;48.274;7.794;2024-03-25T05:46:46;3.00;99.90
21722;DHT22;11023;48.274;7.794;2024-03-25T05:49:12;3.10;99.90
21722;DHT22;11023;48.274;7.794;2024-03-25T05:51:38;3.10;99.90
21722;DHT22;11023;48.274;7.794;2024-03-25T05:54:05;3.10;99.90
21722;DHT22;11023;48.274;7.794;2024-03-25T05:56:33;3.20;99.90
21722;DHT22;11023;48.274;7.794;2024-03-25T05:59:00;3.20;99.90
21722;DHT22;11023;48.274;7.794;2024-03-25T06:01:26;3.30;99.90
21722;DHT22;11023;48.274;7.794;2024-03-25T06:03:53;3.30;99.90
21722;DHT22;11023;48.274;7.794;2024-03-25T06:06:20;3.30;99.90
21722;DHT22;11023;48.274;7.794;2024-03-25T06:08:47;3.30;99.90
21722;DHT22;11023;48.274;7.794;2024-03-25T06:11:14;3.40;99.90
21722;DHT22;11023;48.274;7.794;2024-03-25T06:13:40;3.40;99.90
21722;DHT22;11023;48.274;7.794;2024-03-25T06:16:07;3.40;99.90
21722;DHT22;11023;48.274;7.794;2024-03-25T06:18:33;3.40;99.90
21722;DHT22;11023;48.274;7.794;2024-03-25T06:20:59;3.50;99.90
21722;DHT22;11023;48.274;7.794;2024-03-25T06:23:26;3.50;99.90
21722;DHT22;11023;48.274;7.794;2024-03-25T06:25:52;3.50;99.90
21722;DHT22;11023;48.274;7.794;2024-03-25T06:28:19;3.50;99.90
21722;DHT22;11023;48.274;7.794;2024-03-25T06:30:46;3.60;99.90
21722;DHT22;11023;48.274;7.794;2024-03-25T06:33:30;3.70;99.90
21722;DHT22;11023;48.274;7.794;2024-03-25T06:36:16;3.70;99.90
21722;DHT22;11023;48.274;7.794;2024-03-25T06:38:43;3.80;99.90
21722;DHT22;11023;48.274;7.794;2024-03-25T06:41:08;3.80;99.90
21722;DHT22;11023;48.274;7.794;2024-03-25T06:43:34;3.90;99.90
21722;DHT22;11023;48.274;7.794;2024-03-25T06:46:00;4.00;99.90
21722;DHT22;11023;48.274;7.794;2024-03-25T06:48:26;4.10;99.90
21722;DHT22;11023;48.274;7.794;2024-03-25T06:50:59;4.20;99.90
21722;DHT22;11023;48.274;7.794;2024-03-25T06:53:25;4.20;99.90
21722;DHT22;11023;48.274;7.794;2024-03-25T06:58:19;4.30;99.90
21722;DHT22;11023;48.274;7.794;2024-03-25T07:00:45;4.40;99.90
21722;DHT22;11023;48.274;7.794;2024-03-25T07:03:11;4.50;99.90
21722;DHT22;11023;48.274;7.794;2024-03-25T07:05:37;4.60;99.90
21722;DHT22;11023;48.274;7.794;2024-03-25T07:08:03;4.70;99.90
21722;DHT22;11023;48.274;7.794;2024-03-25T07:10:29;4.80;99.90
21722;DHT22;11023;48.274;7.794;2024-03-25T07:12:55;4.90;99.90
21722;DHT22;11023;48.274;7.794;2024-03-25T07:15:21;5.00;99.90
21722;DHT22;11023;48.274;7.794;2024-03-25T07:17:47;5.00;99.90
21722;DHT22;11023;48.274;7.794;2024-03-25T07:20:13;5.10;99.90
21722;DHT22;11023;48.274;7.794;2024-03-25T07:22:38;5.30;99.90
21722;DHT22;11023;48.274;7.794;2024-03-25T07:25:05;5.40;99.90
21722;DHT22;11023;48.274;7.794;2024-03-25T07:27:31;5.50;99.90
21722;DHT22;11023;48.274;7.794;2024-03-25T07:29:56;5.60;99.90
21722;DHT22;11023;48.274;7.794;2024-03-25T07:32:22;5.70;99.90
21722;DHT22;11023;48.274;7.794;2024-03-25T07:34:48;5.90;99.90
21722;DHT22;11023;48.274;7.794;2024-03-25T07:37:14;6.00;99.90
21722;DHT22;11023;48.274;7.794;2024-03-25T07:39:40;6.10;99.90
21722;DHT22;11023;48.274;7.794;2024-03-25T07:42:05;6.20;99.90
21722;DHT22;11023;48.274;7.794;2024-03-25T07:44:34;6.30;99.90
21722;DHT22;11023;48.274;7.794;2024-03-25T07:47:00;6.40;99.90
21722;DHT22;11023;48.274;7.794;2024-03-25T07:49:25;6.50;99.90
21722;DHT22;11023;48.274;7.794;2024-03-25T07:51:51;6.70;99.90
21722;DHT22;11023;48.274;7.794;2024-03-25T07:54:17;6.70;99.90
21722;DHT22;11023;48.274;7.794;2024-03-25T07:56:43;6.80;99.90
21722;DHT22;11023;48.274;7.794;2024-03-25T07:59:09;6.90;99.90
21722;DHT22;11023;48.274;7.794;2024-03-25T08:01:34;7.00;99.90
21722;DHT22;11023;48.274;7.794;2024-03-25T08:04:00;7.10;99.90
21722;DHT22;11023;48.274;7.794;2024-03-25T08:06:27;7.20;99.90
21722;DHT22;11023;48.274;7.794;2024-03-25T08:08:53;7.30;99.90
21722;DHT22;11023;48.274;7.794;2024-03-25T08:11:19;7.30;99.90
21722;DHT22;11023;48.274;7.794;2024-03-25T08:13:46;7.40;99.90
21722;DHT22;11023;48.274;7.794;2024-03-25T08:16:12;7.50;99.90
21722;DHT22;11023;48.274;7.794;2024-03-25T08:18:37;7.50;99.90
21722;DHT22;11023;48.274;7.794;2024-03-25T08:21:04;7.60;99.90
21722;DHT22;11023;48.274;7.794;2024-03-25T08:23:30;7.70;99.90
21722;DHT22;11023;48.274;7.794;2024-03-25T08:25:56;7.80;99.90
21722;DHT22;11023;48.274;7.794;2024-03-25T08:28:22;7.80;99.90
21722;DHT22;11023;48.274;7.794;2024-03-25T08:30:48;7.90;99.90
21722;DHT22;11023;48.274;7.794;2024-03-25T08:33:13;8.00;99.90
21722;DHT22;11023;48.274;7.794;2024-03-25T08:35:41;8.00;99.90
21722;DHT22;11023;48.274;7.794;2024-03-25T08:38:06;8.00;99.90
21722;DHT22;11023;48.274;7.794;2024-03-25T08:40:32;8.10;99.90
21722;DHT22;11023;48.274;7.794;2024-03-25T08:43:00;8.10;99.90
21722;DHT22;11023;48.274;7.794;2024-03-25T08:45:26;8.20;99.90
21722;DHT22;11023;48.274;7.794;2024-03-25T08:47:52;8.30;99.90
21722;DHT22;11023;48.274;7.794;2024-03-25T08:50:18;8.30;99.90
21722;DHT22;11023;48.274;7.794;2024-03-25T08:52:43;8.40;99.90
21722;DHT22;11023;48.274;7.794;2024-03-25T08:55:09;8.40;99.90
21722;DHT22;11023;48.274;7.794;2024-03-25T08:57:35;8.50;99.90
21722;DHT22;11023;48.274;7.794;2024-03-25T09:00:01;8.60;99.90
21722;DHT22;11023;48.274;7.794;2024-03-25T09:02:29;8.70;99.90
21722;DHT22;11023;48.274;7.794;2024-03-25T09:04:55;8.80;99.90
21722;DHT22;11023;48.274;7.794;2024-03-25T09:07:21;8.80;99.90
21722;DHT22;11023;48.274;7.794;2024-03-25T09:09:47;8.80;99.90
21722;DHT22;11023;48.274;7.794;2024-03-25T09:12:31;8.90;99.90
21722;DHT22;11023;48.274;7.794;2024-03-25T09:14:57;8.90;99.90
21722;DHT22;11023;48.274;7.794;2024-03-25T09:17:25;9.00;99.90
21722;DHT22;11023;48.274;7.794;2024-03-25T09:19:50;9.00;99.90
21722;DHT22;11023;48.274;7.794;2024-03-25T09:22:16;9.10;99.90
21722;DHT22;11023;48.274;7.794;2024-03-25T09:24:43;9.10;99.90
21722;DHT22;11023;48.274;7.794;2024-03-25T09:27:09;9.20;99.90
21722;DHT22;11023;48.274;7.794;2024-03-25T09:29:34;9.30;99.90
21722;DHT22;11023;48.274;7.794;2024-03-25T09:32:00;9.40;99.90
21722;DHT22;11023;48.274;7.794;2024-03-25T09:34:25;9.40;99.90
21722;DHT22;11023;48.274;7.794;2024-03-25T09:36:51;9.50;99.90
21722;DHT22;11023;48.274;7.794;2024-03-25T09:39:17;9.50;99.90
21722;DHT22;11023;48.274;7.794;2024-03-25T09:41:46;9.50;99.90
21722;DHT22;11023;48.274;7.794;2024-03-25T09:44:13;9.60;99.90
21722;DHT22;11023;48.274;7.794;2024-03-25T09:46:39;9.70;99.90
21722;DHT22;11023;48.274;7.794;2024-03-25T09:49:05;9.70;99.90
21722;DHT22;11023;48.274;7.794;2024-03-25T09:51:31;9.70;99.90
21722;DHT22;11023;48.274;7.794;2024-03-25T09:53:57;9.90;99.90
21722;DHT22;11023;48.274;7.794;2024-03-25T09:56:23;10.00;99.90
21722;DHT22;11023;48.274;7.794;2024-03-25T09:58:49;10.00;99.90
21722;DHT22;11023;48.274;7.794;2024-03-25T10:01:14;9.90;99.90
21722;DHT22;11023;48.274;7.794;2024-03-25T10:03:40;9.90;99.90
21722;DHT22;11023;48.274;7.794;2024-03-25T10:06:06;10.00;99.90
21722;DHT22;11023;48.274;7.794;2024-03-25T10:08:33;10.10;99.90
21722;DHT22;11023;48.274;7.794;2024-03-25T10:11:00;10.10;99.90
21722;DHT22;11023;48.274;7.794;2024-03-25T10:13:27;10.30;99.90
21722;DHT22;11023;48.274;7.794;2024-03-25T10:15:54;10.40;99.90
21722;DHT22;11023;48.274;7.794;2024-03-25T10:18:20;10.40;99.90
21722;DHT22;11023;48.274;7.794;2024-03-25T10:20:52;10.40;99.90
21722;DHT22;11023;48.274;7.794;2024-03-25T10:23:25;10.30;99.90
21722;DHT22;11023;48.274;7.794;2024-03-25T10:25:55;10.30;99.90
21722;DHT22;11023;48.274;7.794;2024-03-25T10:28:21;10.50;99.90
21722;DHT22;11023;48.274;7.794;2024-03-25T10:30:47;10.70;99.90
21722;DHT22;11023;48.274;7.794;2024-03-25T10:33:13;10.90;99.90
21722;DHT22;11023;48.274;7.794;2024-03-25T10:35:40;11.00;99.90
21722;DHT22;11023;48.274;7.794;2024-03-25T10:38:10;11.00;99.90
21722;DHT22;11023;48.274;7.794;2024-03-25T10:40:37;11.00;99.90
21722;DHT22;11023;48.274;7.794;2024-03-25T10:43:05;11.20;99.90
21722;DHT22;11023;48.274;7.794;2024-03-25T10:45:45;11.30;99.90
21722;DHT22;11023;48.274;7.794;2024-03-25T10:50:46;11.50;99.90
21722;DHT22;11023;48.274;7.794;2024-03-25T10:53:14;11.70;99.90
21722;DHT22;11023;48.274;7.794;2024-03-25T10:55:42;11.70;99.90
21722;DHT22;11023;48.274;7.794;2024-03-25T10:58:10;11.70;99.90
21722;DHT22;11023;48.274;7.794;2024-03-25T11:00:37;11.70;99.90
21722;DHT22;11023;48.274;7.794;2024-03-25T11:03:04;11.60;99.90
21722;DHT22;11023;48.274;7.794;2024-03-25T11:05:30;11.60;99.90
21722;DHT22;11023;48.274;7.794;2024-03-25T11:07:55;11.80;99.90
21722;DHT22;11023;48.274;7.794;2024-03-25T11:10:29;11.80;99.90
21722;DHT22;11023;48.274;7.794;2024-03-25T11:12:55;11.90;99.90
21722;DHT22;11023;48.274;7.794;2024-03-25T11:15:20;11.90;99.90
21722;DHT22;11023;48.274;7.794;2024-03-25T11:17:50;12.00;99.90
21722;DHT22;11023;48.274;7.794;2024-03-25T11:20:16;12.10;99.90
21722;DHT22;11023;48.274;7.794;2024-03-25T11:22:52;12.20;99.90
21722;DHT22;11023;48.274;7.794;2024-03-25T11:25:20;12.30;99.90
21722;DHT22;11023;48.274;7.794;2024-03-25T11:27:47;12.40;99.90
21722;DHT22;11023;48.274;7.794;2024-03-25T11:30:16;12.20;99.90
21722;DHT22;11023;48.274;7.794;2024-03-25T11:32:54;12.30;99.90
21722;DHT22;11023;48.274;7.794;2024-03-25T11:35:21;12.50;99.90
21722;DHT22;11023;48.274;7.794;2024-03-25T11:37:46;12.50;99.90
21722;DHT22;11023;48.274;7.794;2024-03-25T11:40:13;12.60;99.90
21722;DHT22;11023;48.274;7.794;2024-03-25T11:42:43;12.70;99.90
21722;DHT22;11023;48.274;7.794;2024-03-25T11:45:20;12.60;99.90
21722;DHT22;11023;48.274;7.794;2024-03-25T11:47:48;12.70;99.90
21722;DHT22;11023;48.274;7.794;2024-03-25T11:50:16;12.70;99.90
21722;DHT22;11023;48.274;7.794;2024-03-25T11:52:42;12.70;99.90
21722;DHT22;11023;48.274;7.794;2024-03-25T11:55:09;12.70;99.90
21722;DHT22;11023;48.274;7.794;2024-03-25T11:57:36;12.80;99.90
21722;DHT22;11023;48.274;7.794;2024-03-25T12:00:03;12.80;99.90
21722;DHT22;11023;48.274;7.794;2024-03-25T12:02:31;12.90;99.90
21722;DHT22;11023;48.274;7.794;2024-03-25T12:04:57;13.00;99.90
21722;DHT22;11023;48.274;7.794;2024-03-25T12:07:22;13.00;99.90
21722;DHT22;11023;48.274;7.794;2024-03-25T12:09:48;13.00;99.90
21722;DHT22;11023;48.274;7.794;2024-03-25T12:12:32;13.10;99.90
21722;DHT22;11023;48.274;7.794;2024-03-25T12:14:58;13.20;99.90
21722;DHT22;11023;48.274;7.794;2024-03-25T12:17:24;13.20;99.90
21722;DHT22;11023;48.274;7.794;2024-03-25T12:22:26;13.40;99.90
21722;DHT22;11023;48.274;7.794;2024-03-25T12:24:52;13.60;99.90
21722;DHT22;11023;48.274;7.794;2024-03-25T12:27:18;13.60;99.90
21722;DHT22;11023;48.274;7.794;2024-03-25T12:29:43;13.70;99.90
21722;DHT22;11023;48.274;7.794;2024-03-25T12:32:09;13.80;99.90
21722;DHT22;11023;48.274;7.794;2024-03-25T12:34:35;13.80;99.90
21722;DHT22;11023;48.274;7.794;2024-03-25T12:37:02;13.80;99.90
21722;DHT22;11023;48.274;7.794;2024-03-25T12:39:30;14.10;99.90
21722;DHT22;11023;48.274;7.794;2024-03-25T12:41:56;14.50;99.90
21722;DHT22;11023;48.274;7.794;2024-03-25T12:44:21;14.70;99.90
21722;DHT22;11023;48.274;7.794;2024-03-25T12:46:47;15.00;99.90
21722;DHT22;11023;48.274;7.794;2024-03-25T12:49:13;15.00;99.90
21722;DHT22;11023;48.274;7.794;2024-03-25T12:51:38;15.00;99.90
21722;DHT22;11023;48.274;7.794;2024-03-25T12:54:04;14.90;99.90
21722;DHT22;11023;48.274;7.794;2024-03-25T12:56:30;14.80;99.90
21722;DHT22;11023;48.274;7.794;2024-03-25T12:58:55;14.80;99.90
21722;DHT22;11023;48.274;7.794;2024-03-25T13:01:21;15.00;99.90
21722;DHT22;11023;48.274;7.794;2024-03-25T13:03:46;15.20;99.90
21722;DHT22;11023;48.274;7.794;2024-03-25T13:06:12;15.50;99.90
21722;DHT22;11023;48.274;7.794;2024-03-25T13:08:38;15.60;99.90
21722;DHT22;11023;48.274;7.794;2024-03-25T13:11:03;15.70;99.90
21722;DHT22;11023;48.274;7.794;2024-03-25T13:13:29;16.00;99.90
21722;DHT22;11023;48.274;7.794;2024-03-25T13:15:55;16.30;99.90
21722;DHT22;11023;48.274;7.794;2024-03-25T13:18:21;16.50;99.90
21722;DHT22;11023;48.274;7.794;2024-03-25T13:20:46;16.80;99.90
21722;DHT22;11023;48.274;7.794;2024-03-25T13:23:12;17.00;99.90
21722;DHT22;11023;48.274;7.794;2024-03-25T13:25:37;17.20;99.90
21722;DHT22;11023;48.274;7.794;2024-03-25T13:28:03;17.20;99.90
21722;DHT22;11023;48.274;7.794;2024-03-25T13:30:31;17.40;99.90
21722;DHT22;11023;48.274;7.794;2024-03-25T13:32:57;17.40;99.90
21722;DHT22;11023;48.274;7.794;2024-03-25T13:35:23;17.60;99.90
21722;DHT22;11023;48.274;7.794;2024-03-25T13:37:48;17.70;99.90
21722;DHT22;11023;48.274;7.794;2024-03-25T13:40:14;17.80;99.90
21722;DHT22;11023;48.274;7.794;2024-03-25T13:42:40;18.00;99.90
21722;DHT22;11023;48.274;7.794;2024-03-25T13:45:06;17.90;99.90
21722;DHT22;11023;48.274;7.794;2024-03-25T13:47:31;18.00;99.90
21722;DHT22;11023;48.274;7.794;2024-03-25T13:50:04;18.10;99.90
21722;DHT22;11023;48.274;7.794;2024-03-25T13:52:32;18.20;99.90
21722;DHT22;11023;48.274;7.794;2024-03-25T13:54:58;18.30;99.90
21722;DHT22;11023;48.274;7.794;2024-03-25T13:57:24;18.40;99.90
21722;DHT22;11023;48.274;7.794;2024-03-25T13:59:52;18.60;99.90
21722;DHT22;11023;48.274;7.794;2024-03-25T14:02:18;18.70;99.90
21722;DHT22;11023;48.274;7.794;2024-03-25T14:04:44;18.80;94.90
21722;DHT22;11023;48.274;7.794;2024-03-25T14:07:11;18.80;96.70
21722;DHT22;11023;48.274;7.794;2024-03-25T14:09:38;18.90;96.70
21722;DHT22;11023;48.274;7.794;2024-03-25T14:12:04;19.00;97.40
21722;DHT22;11023;48.274;7.794;2024-03-25T14:14:30;19.10;97.70
21722;DHT22;11023;48.274;7.794;2024-03-25T14:16:55;19.10;95.50
21722;DHT22;11023;48.274;7.794;2024-03-25T14:19:21;19.10;94.50
21722;DHT22;11023;48.274;7.794;2024-03-25T14:21:49;19.10;94.90
21722;DHT22;11023;48.274;7.794;2024-03-25T14:24:15;19.20;93.70
21722;DHT22;11023;48.274;7.794;2024-03-25T14:26:41;19.40;91.70
21722;DHT22;11023;48.274;7.794;2024-03-25T14:29:07;19.50;93.10
21722;DHT22;11023;48.274;7.794;2024-03-25T14:31:32;19.70;93.00
21722;DHT22;11023;48.274;7.794;2024-03-25T14:33:58;19.70;93.20
21722;DHT22;11023;48.274;7.794;2024-03-25T14:36:24;19.80;93.40
21722;DHT22;11023;48.274;7.794;2024-03-25T14:38:50;19.80;93.00
21722;DHT22;11023;48.274;7.794;2024-03-25T14:41:19;19.90;92.90
21722;DHT22;11023;48.274;7.794;2024-03-25T14:43:45;20.00;93.60
21722;DHT22;11023;48.274;7.794;2024-03-25T14:46:11;20.10;92.40
21722;DHT22;11023;48.274;7.794;2024-03-25T14:48:37;20.20;92.20
21722;DHT22;11023;48.274;7.794;2024-03-25T14:51:02;20.20;91.70
21722;DHT22;11023;48.274;7.794;2024-03-25T14:53:28;20.30;91.70
21722;DHT22;11023;48.274;7.794;2024-03-25T14:55:54;20.40;91.80
21722;DHT22;11023;48.274;7.794;2024-03-25T14:58:19;20.40;90.20
21722;DHT22;11023;48.274;7.794;2024-03-25T15:00:45;20.50;91.10
21722;DHT22;11023;48.274;7.794;2024-03-25T15:03:10;20.30;90.60
21722;DHT22;11023;48.274;7.794;2024-03-25T15:05:36;20.20;91.40
21722;DHT22;11023;48.274;7.794;2024-03-25T15:08:02;20.30;91.20
21722;DHT22;11023;48.274;7.794;2024-03-25T15:10:28;20.20;91.00
21722;DHT22;11023;48.274;7.794;2024-03-25T15:12:54;20.30;91.30
21722;DHT22;11023;48.274;7.794;2024-03-25T15:15:19;20.30;90.90
21722;DHT22;11023;48.274;7.794;2024-03-25T15:17:45;20.20;90.90
21722;DHT22;11023;48.274;7.794;2024-03-25T15:20:11;20.20;91.00
21722;DHT22;11023;48.274;7.794;2024-03-25T15:22:37;20.30;89.80
21722;DHT22;11023;48.274;7.794;2024-03-25T15:25:04;20.30;90.50
21722;DHT22;11023;48.274;7.794;2024-03-25T15:27:30;20.30;87.30
21722;DHT22;11023;48.274;7.794;2024-03-25T15:29:56;20.20;86.20
21722;DHT22;11023;48.274;7.794;2024-03-25T15:32:22;20.30;87.00
21722;DHT22;11023;48.274;7.794;2024-03-25T15:34:48;20.30;85.00
21722;DHT22;11023;48.274;7.794;2024-03-25T15:37:14;20.20;83.70
21722;DHT22;11023;48.274;7.794;2024-03-25T15:39:40;20.20;85.20
21722;DHT22;11023;48.274;7.794;2024-03-25T15:42:06;20.30;84.60
21722;DHT22;11023;48.274;7.794;2024-03-25T15:44:32;20.30;85.40